Time;durP1;ratioP1;P1;durP2;ratioP2;P2;SDS_P1;SDS_P2;PMS_P1;PMS_P2;Temp;Humidity;BMP_temperature;BMP_pressure;BME280_temperature;BME280_humidity;BME280_pressure;Samples;Min_cycle;Max_cycle;Signal;HPM_P1;HPM_P2
2021/09/11 00:00:07;;;;;;;7.60;4.50;;;;;;;17.16;100.00;100821.31;691804;28;1629;-55
2021/09/11 00:00:27;;;;;;;7.72;4.63;;;;;;;17.14;100.00;100825.78;692254;28;1937;-56
2021/09/11 00:00:48;;;;;;;8.07;4.60;;;;;;;17.14;100.00;100815.19;692352;28;1901;-52
2021/09/11 00:01:08;;;;;;;7.68;4.60;;;;;;;17.15;100.00;100824.88;690901;28;1191;-57
2021/09/11 00:01:29;;;;;;;7.50;4.33;;;;;;;17.13;100.00;100821.41;691345;28;1954;-55
2021/09/11 00:01:49;;;;;;;7.20;4.73;;;;;;;17.13;100.00;100826.69;691857;28;1571;-56
2021/09/11 00:02:10;;;;;;;8.73;4.53;;;;;;;17.12;100.00;100825.81;692007;28;1808;-57
2021/09/11 00:02:30;;;;;;;7.20;4.60;;;;;;;17.12;100.00;100822.31;691542;28;5119;-57
2021/09/11 00:02:51;;;;;;;8.32;4.80;;;;;;;17.10;100.00;100819.72;691879;28;1827;-53
2021/09/11 00:03:11;;;;;;;7.17;4.83;;;;;;;17.10;100.00;100821.47;692628;28;1521;-56
2021/09/11 00:03:33;;;;;;;5.80;4.65;;;;;;;17.08;100.00;100818.88;692867;28;1788;-57
2021/09/11 00:03:53;;;;;;;6.00;4.32;;;;;;;17.08;100.00;100823.31;689850;28;1705;-58
2021/09/11 00:04:14;;;;;;;5.97;4.63;;;;;;;17.07;100.00;100821.59;690197;28;1369;-56
2021/09/11 00:04:34;;;;;;;6.60;4.90;;;;;;;17.05;100.00;100823.41;692670;28;1094;-57
2021/09/11 00:04:54;;;;;;;6.50;5.00;;;;;;;17.05;100.00;100823.41;692451;28;3376;-57
2021/09/11 00:05:16;;;;;;;6.33;4.87;;;;;;;17.01;100.00;100823.47;691813;28;3970;-56
2021/09/11 00:05:36;;;;;;;7.13;5.13;;;;;;;17.01;100.00;100822.63;692158;28;4574;-57
2021/09/11 00:05:57;;;;;;;6.90;5.00;;;;;;;17.00;100.00;100815.59;692651;28;1356;-55
2021/09/11 00:06:17;;;;;;;8.13;5.28;;;;;;;16.98;100.00;100828.00;691847;28;1810;-56
2021/09/11 00:06:38;;;;;;;7.73;5.20;;;;;;;16.97;100.00;100824.47;692273;28;1494;-56
2021/09/11 00:06:58;;;;;;;8.27;5.28;;;;;;;16.98;100.00;100828.00;693029;28;1253;-56
2021/09/11 00:07:18;;;;;;;6.67;5.13;;;;;;;16.98;100.00;100828.00;691854;28;1428;-57
2021/09/11 00:07:39;;;;;;;7.17;5.10;;;;;;;16.99;100.00;100827.09;692170;28;3354;-57
2021/09/11 00:07:59;;;;;;;6.15;5.03;;;;;;;16.99;100.00;100825.31;692627;28;4629;-57
2021/09/11 00:08:20;;;;;;;6.15;4.95;;;;;;;17.00;100.00;100827.06;689292;28;1636;-57
2021/09/11 00:08:40;;;;;;;6.57;4.97;;;;;;;17.00;100.00;100824.41;689592;28;4332;-57
2021/09/11 00:09:00;;;;;;;7.53;5.30;;;;;;;17.01;100.00;100822.63;690365;28;1524;-57
2021/09/11 00:09:21;;;;;;;6.95;4.90;;;;;;;17.02;100.00;100825.22;687048;28;1383;-54
2021/09/11 00:09:41;;;;;;;6.63;4.60;;;;;;;17.04;100.00;100822.53;690124;28;1614;-56
2021/09/11 00:10:03;;;;;;;6.45;4.70;;;;;;;17.04;100.00;100824.31;689609;28;1750;-56
2021/09/11 00:10:24;;;;;;;6.88;4.88;;;;;;;17.04;100.00;100827.81;689561;28;4131;-57
2021/09/11 00:10:44;;;;;;;7.83;5.03;;;;;;;17.06;100.00;100825.13;689696;28;1727;-56
2021/09/11 00:11:04;;;;;;;6.77;4.60;;;;;;;17.09;100.00;100825.06;690195;28;3448;-57
2021/09/11 00:11:25;;;;;;;7.40;4.57;;;;;;;17.11;100.00;100829.38;692019;28;4598;-57
2021/09/11 00:11:45;;;;;;;7.60;4.30;;;;;;;17.12;99.99;100820.53;692763;28;1352;-57
2021/09/11 00:12:09;;;;;;;7.03;4.88;;;;;;;17.15;100.00;100823.06;692414;28;1664;-56
2021/09/11 00:12:30;;;;;;;7.45;4.82;;;;;;;17.13;100.00;100824.91;691955;28;1762;-56
2021/09/11 00:12:50;;;;;;;7.10;4.73;;;;;;;17.14;100.00;100828.41;691620;28;1495;-54
2021/09/11 00:13:11;;;;;;;7.38;4.85;;;;;;;17.14;100.00;100823.13;692391;28;3372;-56
2021/09/11 00:13:31;;;;;;;6.37;4.97;;;;;;;17.13;100.00;100826.69;691933;28;3653;-57
2021/09/11 00:13:51;;;;;;;7.32;5.25;;;;;;;17.12;100.00;100822.31;692023;28;1641;-57
2021/09/11 00:14:12;;;;;;;6.30;4.73;;;;;;;17.12;100.00;100828.47;691424;28;2012;-57
2021/09/11 00:14:32;;;;;;;6.10;4.82;;;;;;;17.12;100.00;100830.25;694131;28;4566;-57
2021/09/11 00:14:52;;;;;;;7.27;5.20;;;;;;;17.08;100.00;100818.88;694698;28;1200;-58
2021/09/11 00:15:15;;;;;;;7.90;5.10;;;;;;;17.09;100.00;100825.06;694947;28;1452;-57
2021/09/11 00:15:36;;;;;;;6.97;4.80;;;;;;;17.10;100.00;100826.75;694974;28;1513;-57
2021/09/11 00:15:57;;;;;;;6.82;4.55;;;;;;;17.09;100.00;100825.06;694497;28;1450;-57
2021/09/11 00:16:17;;;;;;;7.20;4.88;;;;;;;17.08;100.00;100823.31;693081;28;4154;-57
2021/09/11 00:16:37;;;;;;;7.00;5.20;;;;;;;17.05;100.00;100823.41;692832;28;2060;-56
2021/09/11 00:16:58;;;;;;;8.17;5.20;;;;;;;17.02;100.00;100829.66;691816;28;4413;-56
2021/09/11 00:17:18;;;;;;;7.43;5.10;;;;;;;17.00;100.00;100829.69;691714;28;1446;-57
2021/09/11 00:17:40;;;;;;;7.07;5.20;;;;;;;17.00;100.00;100826.16;691516;28;4558;-57
2021/09/11 00:18:03;;;;;;;7.70;5.45;;;;;;;16.98;100.00;100828.00;692442;28;1402;-57
2021/09/11 00:18:23;;;;;;;7.35;5.32;;;;;;;16.97;100.00;100824.47;692245;28;1953;-54
2021/09/11 00:18:43;;;;;;;6.57;5.30;;;;;;;16.96;100.00;100829.81;691875;28;1570;-55
2021/09/11 00:19:03;;;;;;;7.17;5.10;;;;;;;17.00;100.00;100824.41;692304;28;4170;-55
2021/09/11 00:19:24;;;;;;;7.53;4.97;;;;;;;17.03;100.00;100820.81;692265;28;1510;-55
2021/09/11 00:19:46;;;;;;;6.50;5.23;;;;;;;17.07;100.00;100826.88;692052;28;1476;-57
2021/09/11 00:20:08;;;;;;;6.35;4.93;;;;;;;17.08;100.00;100833.88;693307;28;1368;-56
2021/09/11 00:20:29;;;;;;;6.88;4.88;;;;;;;17.07;100.00;100826.88;691803;28;4467;-56
2021/09/11 00:20:49;;;;;;;8.50;4.83;;;;;;;17.07;100.00;100824.22;692347;28;1547;-55
2021/09/11 00:21:10;;;;;;;8.32;4.95;;;;;;;17.06;100.00;100833.03;691873;28;1702;-57
2021/09/11 00:21:30;;;;;;;6.83;5.10;;;;;;;17.03;100.00;100828.75;691930;28;1961;-56
2021/09/11 00:21:50;;;;;;;7.17;5.13;;;;;;;17.03;100.00;100828.75;691388;28;3959;-55
2021/09/11 00:22:11;;;;;;;7.40;5.23;;;;;;;17.02;100.00;100829.66;692053;28;4201;-57
2021/09/11 00:22:31;;;;;;;7.73;5.40;;;;;;;17.01;100.00;100827.91;691533;28;2002;-56
2021/09/11 00:22:51;;;;;;;7.68;5.00;;;;;;;16.99;100.00;100829.75;691475;28;1582;-56
2021/09/11 00:23:13;;;;;;;9.40;5.13;;;;;;;17.00;100.00;100820.88;691897;28;1545;-55
2021/09/11 00:23:33;;;;;;;8.32;5.63;;;;;;;17.02;100.00;100824.38;691053;28;4439;-55
2021/09/11 00:23:53;;;;;;;6.70;5.47;;;;;;;17.03;100.00;100826.09;690859;28;1500;-57
2021/09/11 00:24:14;;;;;;;7.60;5.37;;;;;;;17.04;100.00;100826.97;692194;28;1365;-56
2021/09/11 00:24:34;;;;;;;7.78;4.80;;;;;;;17.04;100.00;100826.97;692495;28;3219;-57
2021/09/11 00:24:55;;;;;;;7.83;4.90;;;;;;;17.04;100.00;100826.97;691486;28;4389;-56
2021/09/11 00:25:15;;;;;;;7.28;4.90;;;;;;;17.05;100.00;100828.69;691978;28;2096;-56
2021/09/11 00:25:36;;;;;;;8.17;5.00;;;;;;;17.07;100.00;100821.59;691932;28;1207;-56
2021/09/11 00:25:59;;;;;;;6.45;4.60;;;;;;;17.10;100.00;100824.13;691614;28;1273;-55
2021/09/11 00:26:19;;;;;;;7.18;4.50;;;;;;;17.11;100.00;100825.88;691001;28;977;-57
2021/09/11 00:26:40;;;;;;;6.77;4.70;;;;;;;17.12;100.00;100825.81;691125;28;4540;-58
2021/09/11 00:27:00;;;;;;;7.50;5.05;;;;;;;17.12;100.00;100824.97;691159;28;1254;-56
2021/09/11 00:27:20;;;;;;;6.83;5.17;;;;;;;17.09;100.00;100825.06;687744;28;2243;-57
2021/09/11 00:27:41;;;;;;;7.32;5.35;;;;;;;17.07;100.00;100827.75;689096;28;3694;-55
2021/09/11 00:28:01;;;;;;;7.90;4.53;;;;;;;17.06;100.00;100825.13;687867;28;1714;-57
2021/09/11 00:28:21;;;;;;;8.23;4.70;;;;;;;17.08;100.00;100818.03;687234;28;2374;-56
2021/09/11 00:28:42;;;;;;;7.55;4.70;;;;;;;17.09;100.00;100822.41;686788;28;1430;-57
2021/09/11 00:29:02;;;;;;;6.93;4.80;;;;;;;17.09;100.00;100825.91;689441;28;1740;-56
2021/09/11 00:29:23;;;;;;;7.20;4.47;;;;;;;17.11;99.81;100823.22;692500;28;1745;-54
2021/09/11 00:29:44;;;;;;;8.38;4.40;;;;;;;17.14;99.09;100825.78;692181;28;4635;-54
2021/09/11 00:30:05;;;;;;;7.23;4.20;;;;;;;17.16;99.07;100816.88;692334;28;1392;-57
2021/09/11 00:30:25;;;;;;;6.65;4.45;;;;;;;17.14;100.00;100817.84;691677;28;4052;-55
2021/09/11 00:30:45;;;;;;;7.80;4.97;;;;;;;17.11;100.00;100817.94;692662;28;1436;-57
2021/09/11 00:31:07;;;;;;;7.28;4.68;;;;;;;17.10;100.00;100818.84;692277;28;1648;-57
2021/09/11 00:31:28;;;;;;;5.80;4.70;;;;;;;17.08;100.00;100824.19;690990;28;1337;-57
2021/09/11 00:31:48;;;;;;;6.67;5.20;;;;;;;17.11;100.00;100820.59;692498;28;1337;-57
2021/09/11 00:32:09;;;;;;;7.95;4.95;;;;;;;17.10;100.00;100821.47;691847;28;1475;-55
2021/09/11 00:32:29;;;;;;;6.60;4.80;;;;;;;17.09;100.00;100818.00;691285;28;4569;-55
2021/09/11 00:32:49;;;;;;;5.70;4.80;;;;;;;17.09;100.00;100819.78;691878;28;1818;-54
2021/09/11 00:33:10;;;;;;;5.90;4.53;;;;;;;17.09;99.82;100823.28;690729;28;3933;-56
2021/09/11 00:33:30;;;;;;;6.78;4.38;;;;;;;17.11;99.52;100825.88;692611;28;1405;-56
2021/09/11 00:33:56;;;;;;;8.10;4.65;;;;;;;17.11;99.83;100820.59;692243;28;1453;-61
2021/09/11 00:34:17;;;;;;;7.40;4.73;;;;;;;17.09;100.00;100819.78;692476;28;1293;-55
2021/09/11 00:34:38;;;;;;;6.55;4.57;;;;;;;17.09;99.75;100814.50;691723;28;1972;-56
2021/09/11 00:34:58;;;;;;;7.97;4.80;;;;;;;17.10;99.36;100818.84;692192;28;1941;-56
2021/09/11 00:35:19;;;;;;;7.00;4.37;;;;;;;17.11;99.21;100824.09;690798;28;1373;-55
2021/09/11 00:35:39;;;;;;;6.40;4.47;;;;;;;17.11;99.47;100823.22;690541;28;4482;-57
2021/09/11 00:35:59;;;;;;;7.53;4.60;;;;;;;17.09;99.87;100812.72;692046;28;3597;-56
2021/09/11 00:36:19;;;;;;;7.50;4.30;;;;;;;17.08;99.96;100810.97;691211;28;2430;-56
2021/09/11 00:36:40;;;;;;;8.57;4.60;;;;;;;17.08;100.00;100818.03;689383;28;4332;-55
2021/09/11 00:37:00;;;;;;;7.23;4.63;;;;;;;17.06;100.00;100818.09;689953;28;1379;-55
2021/09/11 00:37:21;;;;;;;6.93;4.45;;;;;;;17.06;100.00;100817.19;689651;28;1696;-57
2021/09/11 00:37:42;;;;;;;6.67;4.10;;;;;;;17.08;99.45;100815.41;692551;28;1833;-56
2021/09/11 00:38:02;;;;;;;7.43;4.20;;;;;;;17.10;99.16;100816.19;692364;28;2025;-56
2021/09/11 00:38:23;;;;;;;8.10;4.28;;;;;;;17.12;98.96;100817.03;693076;28;1513;-57
2021/09/11 00:38:44;;;;;;;7.20;4.20;;;;;;;17.14;99.19;100817.84;694351;28;4379;-56
2021/09/11 00:39:04;;;;;;;7.22;4.45;;;;;;;17.12;99.33;100817.88;694314;28;1446;-56
2021/09/11 00:39:24;;;;;;;6.77;4.50;;;;;;;17.12;99.24;100815.25;694240;28;3756;-56
2021/09/11 00:39:45;;;;;;;6.15;4.50;;;;;;;17.13;99.47;100818.78;694990;28;1402;-56
2021/09/11 00:40:06;;;;;;;5.67;4.37;;;;;;;17.11;99.48;100812.66;692426;28;1474;-59
2021/09/11 00:40:26;;;;;;;6.00;4.45;;;;;;;17.11;99.79;100820.59;692062;28;1356;-57
2021/09/11 00:40:47;;;;;;;7.10;4.93;;;;;;;17.09;100.00;100817.13;692264;28;1567;-57
2021/09/11 00:41:07;;;;;;;6.10;4.90;;;;;;;17.07;100.00;100816.28;694232;28;1672;-57
2021/09/11 00:41:27;;;;;;;6.05;4.70;;;;;;;17.05;100.00;100819.00;693312;28;4565;-57
2021/09/11 00:41:48;;;;;;;6.40;4.23;;;;;;;17.08;99.45;100818.03;694847;28;3880;-57
2021/09/11 00:42:08;;;;;;;7.13;4.20;;;;;;;17.09;99.09;100819.78;694488;28;1672;-57
2021/09/11 00:42:28;;;;;;;8.55;4.40;;;;;;;17.09;99.19;100820.63;695131;28;1646;-57
2021/09/11 00:42:49;;;;;;;8.47;4.77;;;;;;;17.08;99.72;100818.88;694998;28;1881;-56
2021/09/11 00:43:09;;;;;;;6.25;4.95;;;;;;;17.07;99.57;100822.47;691255;28;1427;-54
2021/09/11 00:43:34;;;;;;;5.87;4.70;;;;;;;17.06;100.00;100814.56;691546;28;1460;-57
2021/09/11 00:43:56;;;;;;;7.70;4.78;;;;;;;17.04;100.00;100817.25;691620;28;1490;-56
2021/09/11 00:44:17;;;;;;;7.93;4.90;;;;;;;17.01;100.00;100827.91;691735;28;1206;-57
2021/09/11 00:44:37;;;;;;;7.97;5.00;;;;;;;16.98;100.00;100818.28;690845;28;4674;-58
2021/09/11 00:44:57;;;;;;;8.07;4.60;;;;;;;16.97;100.00;100821.84;691836;28;1948;-55
2021/09/11 00:45:23;;;;;;;7.60;4.87;;;;;;;16.96;100.00;100825.41;691587;28;1392;-56
2021/09/11 00:45:43;;;;;;;6.85;4.53;;;;;;;16.98;99.88;100815.66;691871;28;1421;-57
2021/09/11 00:46:03;;;;;;;6.30;4.40;;;;;;;17.00;99.98;100823.53;692573;28;1045;-56
2021/09/11 00:46:24;;;;;;;6.13;4.47;;;;;;;17.00;99.60;100827.06;692033;28;1602;-56
2021/09/11 00:46:44;;;;;;;6.17;4.17;;;;;;;17.04;99.41;100821.69;692187;28;1562;-55
2021/09/11 00:47:05;;;;;;;6.30;4.50;;;;;;;17.03;99.98;100834.03;690742;28;1280;-57
2021/09/11 00:47:25;;;;;;;7.10;4.70;;;;;;;17.00;100.00;100826.16;690800;28;4572;-56
2021/09/11 00:47:46;;;;;;;7.23;4.80;;;;;;;16.98;100.00;100834.13;691799;28;3909;-57
2021/09/11 00:48:06;;;;;;;6.30;4.83;;;;;;;16.94;100.00;100835.13;691781;28;1821;-57
2021/09/11 00:48:27;;;;;;;6.50;5.00;;;;;;;16.91;100.00;100829.94;692344;28;1206;-57
2021/09/11 00:48:47;;;;;;;7.93;5.40;;;;;;;16.89;100.00;100826.50;691598;28;1424;-56
2021/09/11 00:49:08;;;;;;;8.23;5.32;;;;;;;16.87;100.00;100835.34;690990;28;1391;-57
2021/09/11 00:49:28;;;;;;;7.67;5.10;;;;;;;16.86;100.00;100826.53;691176;28;1572;-53
2021/09/11 00:49:48;;;;;;;6.80;4.60;;;;;;;16.91;100.00;100832.59;692767;28;1653;-56
2021/09/11 00:50:10;;;;;;;7.27;4.67;;;;;;;16.92;100.00;100828.16;692548;28;3511;-56
2021/09/11 00:50:31;;;;;;;7.15;4.47;;;;;;;16.95;99.89;100834.25;691391;28;5352;-55
2021/09/11 00:50:52;;;;;;;5.88;4.50;;;;;;;16.97;99.63;100827.13;692345;28;2099;-55
2021/09/11 00:51:13;;;;;;;5.80;4.65;;;;;;;16.98;99.64;100834.13;690734;28;1282;-54
2021/09/11 00:51:34;;;;;;;7.70;4.90;;;;;;;16.97;99.90;100835.03;691721;28;1423;-54
2021/09/11 00:51:54;;;;;;;8.13;4.50;;;;;;;16.97;99.98;100826.28;691653;28;1425;-56
2021/09/11 00:52:15;;;;;;;7.20;4.40;;;;;;;16.97;99.46;100823.63;691741;28;1457;-56
2021/09/11 00:52:40;;;;;;;6.22;4.60;;;;;;;16.97;100.00;100828.91;691578;28;1376;-56
2021/09/11 00:53:01;;;;;;;7.72;5.35;;;;;;;16.94;100.00;100834.28;692064;28;3997;-56
2021/09/11 00:53:21;;;;;;;7.95;5.55;;;;;;;16.90;100.00;100833.50;692045;28;1923;-57
2021/09/11 00:53:42;;;;;;;9.20;5.60;;;;;;;16.89;100.00;100834.44;691446;28;4589;-56
2021/09/11 00:54:03;;;;;;;9.88;5.63;;;;;;;16.88;100.00;100837.03;691888;28;1158;-55
2021/09/11 00:54:24;;;;;;;7.68;5.00;;;;;;;16.89;100.00;100834.44;692341;28;1686;-56
2021/09/11 00:54:44;;;;;;;7.60;4.67;;;;;;;16.91;100.00;100834.38;692312;28;1799;-57
2021/09/11 00:55:06;;;;;;;7.73;5.20;;;;;;;16.89;100.00;100837.06;692329;28;1414;-57
2021/09/11 00:55:27;;;;;;;7.55;5.05;;;;;;;16.88;100.00;100840.56;692157;28;1625;-56
2021/09/11 00:55:47;;;;;;;7.73;5.17;;;;;;;16.88;100.00;100837.94;690645;28;3886;-61
2021/09/11 00:56:08;;;;;;;7.25;5.25;;;;;;;16.83;100.00;100834.53;691608;28;1722;-56
2021/09/11 00:56:29;;;;;;;7.47;5.27;;;;;;;16.81;100.00;100844.31;691445;28;4619;-55
2021/09/11 00:56:50;;;;;;;7.57;5.60;;;;;;;16.80;100.00;100839.91;692110;28;1164;-57
2021/09/11 00:57:10;;;;;;;6.87;5.10;;;;;;;16.83;100.00;100835.41;691373;28;1429;-55
2021/09/11 00:57:31;;;;;;;5.82;4.90;;;;;;;16.85;100.00;100841.53;690591;28;1327;-57
2021/09/11 00:57:53;;;;;;;8.07;5.00;;;;;;;16.88;100.00;100837.03;691737;28;1148;-57
2021/09/11 00:58:13;;;;;;;6.60;4.60;;;;;;;16.90;100.00;100830.00;692003;28;1434;-55
2021/09/11 00:58:34;;;;;;;7.30;5.00;;;;;;;16.90;100.00;100835.28;692858;28;3608;-56
2021/09/11 00:58:54;;;;;;;7.10;5.13;;;;;;;16.87;100.00;100838.84;691574;28;3414;-56
2021/09/11 00:59:15;;;;;;;7.15;5.20;;;;;;;16.85;100.00;100840.66;692174;28;1542;-54
2021/09/11 00:59:35;;;;;;;7.17;5.00;;;;;;;16.88;100.00;100847.59;691872;28;4585;-56
2021/09/11 00:59:55;;;;;;;6.70;5.32;;;;;;;16.84;100.00;100837.16;691086;28;1774;-55
2021/09/11 01:00:16;;;;;;;8.60;5.40;;;;;;;16.84;100.00;100841.56;691389;28;1190;-55
2021/09/11 01:00:36;;;;;;;7.40;5.25;;;;;;;16.83;100.00;100845.09;692207;28;1529;-55
2021/09/11 01:00:57;;;;;;;8.87;5.60;;;;;;;16.81;100.00;100831.09;691622;28;1485;-54
2021/09/11 01:01:17;;;;;;;7.55;5.50;;;;;;;16.80;100.00;100839.91;691198;28;1256;-57
2021/09/11 01:01:38;;;;;;;7.93;5.80;;;;;;;16.81;100.00;100837.25;691440;28;3983;-54
2021/09/11 01:01:58;;;;;;;8.00;5.70;;;;;;;16.80;100.00;100846.06;692627;28;1557;-57
2021/09/11 01:02:19;;;;;;;8.37;5.80;;;;;;;16.80;100.00;100840.78;691759;28;1520;-57
2021/09/11 01:02:39;;;;;;;7.13;5.70;;;;;;;16.81;100.00;100841.66;691453;28;4566;-56
2021/09/11 01:03:00;;;;;;;7.20;5.57;;;;;;;16.82;100.00;100843.38;692386;28;1502;-55
2021/09/11 01:03:20;;;;;;;7.13;5.33;;;;;;;16.85;100.00;100846.81;692530;28;1523;-55
2021/09/11 01:03:41;;;;;;;9.03;5.13;;;;;;;16.87;100.00;100838.84;691898;28;1360;-53
2021/09/11 01:04:01;;;;;;;7.97;5.47;;;;;;;16.87;100.00;100838.84;691156;28;1530;-56
2021/09/11 01:04:22;;;;;;;7.10;5.50;;;;;;;16.87;100.00;100838.84;691866;28;3184;-54
2021/09/11 01:04:42;;;;;;;7.30;5.50;;;;;;;16.87;100.00;100840.63;691715;28;4071;-56
2021/09/11 01:05:08;;;;;;;7.57;5.67;;;;;;;16.84;100.00;100838.94;691434;28;1735;-56
2021/09/11 01:05:28;;;;;;;7.55;5.60;;;;;;;16.84;100.00;100836.28;692112;28;4383;-57
2021/09/11 01:05:49;;;;;;;7.82;5.60;;;;;;;16.82;100.00;100844.25;691528;28;1660;-57
2021/09/11 01:06:10;;;;;;;7.80;5.50;;;;;;;16.80;100.00;100837.28;692488;28;1369;-55
2021/09/11 01:06:31;;;;;;;7.70;5.60;;;;;;;16.81;100.00;100836.38;690828;28;1427;-56
2021/09/11 01:06:52;;;;;;;7.15;5.45;;;;;;;16.83;100.00;100843.31;691768;28;1669;-57
2021/09/11 01:07:12;;;;;;;8.33;5.70;;;;;;;16.83;100.00;100839.81;691229;28;3642;-60
2021/09/11 01:07:37;;;;;;;8.35;5.72;;;;;;;16.83;100.00;100845.09;690689;28;4282;-54
2021/09/11 01:07:58;;;;;;;8.23;5.80;;;;;;;16.82;100.00;100846.91;689234;28;1572;-55
2021/09/11 01:08:19;;;;;;;7.57;5.60;;;;;;;16.82;100.00;100838.09;689196;28;1568;-57
2021/09/11 01:08:40;;;;;;;7.87;5.87;;;;;;;16.81;100.00;100844.31;690736;28;4355;-56
2021/09/11 01:09:00;;;;;;;8.88;5.93;;;;;;;16.81;100.00;100845.16;691761;28;1370;-56
2021/09/11 01:09:21;;;;;;;7.17;6.00;;;;;;;16.82;100.00;100843.38;689061;28;1574;-56
2021/09/11 01:09:42;;;;;;;7.57;6.00;;;;;;;16.89;100.00;100838.81;688686;28;1837;-56
2021/09/11 01:10:03;;;;;;;7.60;5.70;;;;;;;16.97;100.00;100842.13;691757;28;3289;-55
2021/09/11 01:10:23;;;;;;;7.55;5.53;;;;;;;17.08;100.00;100840.03;692004;28;1552;-55
2021/09/11 01:10:44;;;;;;;7.43;5.33;;;;;;;17.19;100.00;100835.28;692008;28;1643;-57
2021/09/11 01:11:04;;;;;;;7.10;5.10;;;;;;;17.28;99.54;100839.44;692342;28;1757;-53
2021/09/11 01:11:25;;;;;;;6.68;4.90;;;;;;;17.30;98.83;100840.25;693949;28;4667;-56
2021/09/11 01:11:46;;;;;;;6.65;4.80;;;;;;;17.27;98.75;100840.34;694132;28;1305;-58
2021/09/11 01:12:07;;;;;;;6.35;4.97;;;;;;;17.24;98.67;100844.84;694810;28;1372;-53
2021/09/11 01:12:28;;;;;;;7.30;4.80;;;;;;;17.22;98.57;100836.13;695080;28;1328;-57
2021/09/11 01:12:48;;;;;;;7.25;5.00;;;;;;;17.20;98.99;100841.44;693765;28;2756;-54
2021/09/11 01:13:09;;;;;;;6.93;5.10;;;;;;;17.17;98.42;100837.13;693818;28;1861;-57
2021/09/11 01:13:32;;;;;;;6.88;5.32;;;;;;;17.14;98.89;100838.97;692789;28;4109;-57
2021/09/11 01:13:53;;;;;;;7.72;5.53;;;;;;;17.13;99.20;100842.56;692448;28;1416;-56
2021/09/11 01:14:14;;;;;;;6.15;4.70;;;;;;;17.12;98.62;100846.09;691436;28;2210;-57
2021/09/11 01:14:34;;;;;;;6.97;4.57;;;;;;;17.09;99.02;100840.91;690688;28;4503;-57
2021/09/11 01:14:54;;;;;;;6.97;5.00;;;;;;;17.07;99.34;100838.31;692495;28;1318;-56
2021/09/11 01:15:16;;;;;;;7.78;5.22;;;;;;;17.05;99.65;100840.13;691675;28;1465;-55
2021/09/11 01:15:39;;;;;;;7.85;5.00;;;;;;;17.05;99.72;100836.63;691395;28;3309;-56
2021/09/11 01:16:00;;;;;;;6.45;4.70;;;;;;;17.05;99.23;100840.13;692093;28;1603;-56
2021/09/11 01:16:21;;;;;;;6.85;5.07;;;;;;;17.05;99.66;100839.25;691334;28;1457;-57
2021/09/11 01:16:41;;;;;;;7.93;5.30;;;;;;;17.02;100.00;100840.22;691244;28;1417;-56
2021/09/11 01:17:02;;;;;;;7.00;5.10;;;;;;;17.01;100.00;100838.47;691681;28;1603;-55
2021/09/11 01:17:22;;;;;;;7.03;5.07;;;;;;;16.99;100.00;100843.81;692359;28;1437;-55
2021/09/11 01:17:45;;;;;;;8.30;4.90;;;;;;;16.98;99.83;100844.69;691390;28;4565;-55
2021/09/11 01:18:07;;;;;;;6.18;4.80;;;;;;;16.98;100.00;100839.41;692025;28;1309;-57
2021/09/11 01:18:27;;;;;;;6.78;5.05;;;;;;;16.95;100.00;100834.25;692072;28;3186;-57
2021/09/11 01:18:48;;;;;;;7.60;5.20;;;;;;;16.94;100.00;100843.06;690690;28;1387;-56
2021/09/11 01:19:09;;;;;;;8.40;5.22;;;;;;;16.94;100.00;100845.69;692096;28;2498;-56
2021/09/11 01:19:29;;;;;;;8.20;5.20;;;;;;;16.97;100.00;100839.47;691235;28;1393;-55
2021/09/11 01:19:49;;;;;;;7.45;5.25;;;;;;;16.95;100.00;100836.88;691546;28;941;-56
2021/09/11 01:20:10;;;;;;;8.20;5.20;;;;;;;16.94;100.00;100835.13;690784;28;1262;-57
2021/09/11 01:20:31;;;;;;;8.95;5.18;;;;;;;16.95;100.00;100839.53;690556;28;4433;-57
2021/09/11 01:20:53;;;;;;;7.75;4.82;;;;;;;16.98;99.71;100838.56;692150;28;1273;-57
2021/09/11 01:21:13;;;;;;;6.28;4.90;;;;;;;17.00;100.00;100834.09;691829;28;3556;-54
2021/09/11 01:21:33;;;;;;;7.10;5.47;;;;;;;16.97;100.00;100840.31;691484;28;1914;-57
2021/09/11 01:21:54;;;;;;;7.57;5.80;;;;;;;16.94;100.00;100840.41;691937;28;2496;-55
2021/09/11 01:22:17;;;;;;;8.05;5.88;;;;;;;16.91;100.00;100837.03;691374;28;1263;-56
2021/09/11 01:22:38;;;;;;;9.30;5.70;;;;;;;16.89;100.00;100834.44;691611;28;1414;-56
2021/09/11 01:22:58;;;;;;;9.25;5.90;;;;;;;16.87;100.00;100835.34;691182;28;969;-57
2021/09/11 01:23:19;;;;;;;7.87;5.73;;;;;;;16.85;100.00;100835.38;691514;28;1220;-55
2021/09/11 01:23:41;;;;;;;7.05;5.40;;;;;;;16.86;100.00;100837.09;690762;28;4577;-57
2021/09/11 01:24:01;;;;;;;7.25;5.20;;;;;;;16.85;100.00;100838.88;692263;28;3416;-56
2021/09/11 01:24:21;;;;;;;8.50;5.27;;;;;;;16.84;100.00;100837.16;692198;28;4104;-56
2021/09/11 01:25:00;;;;;;;9.07;5.13;;;;;;;16.87;100.00;100840.63;691475;28;1198;-55
2021/09/11 01:25:20;;;;;;;7.82;5.53;;;;;;;16.85;100.00;100835.38;690688;28;1178;-55
2021/09/11 01:25:40;;;;;;;7.40;5.90;;;;;;;16.85;100.00;100836.25;691658;28;1148;-57
2021/09/11 01:26:01;;;;;;;7.40;5.80;;;;;;;16.85;100.00;100836.25;692354;28;1292;-56
2021/09/11 01:26:24;;;;;;;8.47;5.60;;;;;;;16.86;100.00;100839.75;691932;28;1052;-56
2021/09/11 01:26:49;;;;;;;7.32;5.10;;;;;;;16.88;100.00;100843.22;691454;28;4729;-56
2021/09/11 01:27:09;;;;;;;6.25;4.85;;;;;;;16.92;99.94;100839.63;691274;28;4180;-54
2021/09/11 01:27:31;;;;;;;7.70;5.60;;;;;;;16.94;100.00;100839.56;691471;28;1330;-56
2021/09/11 01:27:52;;;;;;;7.18;5.65;;;;;;;16.91;100.00;100835.22;691420;28;4256;-55
2021/09/11 01:28:12;;;;;;;6.97;5.70;;;;;;;16.90;100.00;100836.13;690876;28;1823;-55
2021/09/11 01:28:34;;;;;;;7.93;5.50;;;;;;;16.94;100.00;100837.78;691259;28;1093;-57
2021/09/11 01:28:54;;;;;;;7.75;5.40;;;;;;;16.94;100.00;100844.84;691485;28;1075;-53
2021/09/11 01:29:14;;;;;;;7.38;5.30;;;;;;;16.99;100.00;100835.88;690530;28;1233;-58
2021/09/11 01:29:35;;;;;;;7.70;5.53;;;;;;;16.98;100.00;100841.22;691429;28;5230;-56
2021/09/11 01:30:22;;;;;;;8.10;5.53;;;;;;;16.97;99.83;100842.97;692085;28;3950;-56
2021/09/11 01:30:43;;;;;;;6.15;4.82;;;;;;;16.99;99.36;100841.16;690248;28;1728;-53
2021/09/11 01:31:04;;;;;;;6.93;4.85;;;;;;;17.04;98.82;100842.81;691874;28;1370;-57
2021/09/11 01:31:32;;;;;;;6.15;4.68;;;;;;;17.05;99.68;100837.47;691642;28;1341;-57
2021/09/11 01:31:53;;;;;;;6.85;5.00;;;;;;;17.05;99.21;100841.91;692038;28;1146;-57
2021/09/11 01:32:14;;;;;;;7.40;4.80;;;;;;;17.07;98.55;100845.34;691183;28;1192;-56
2021/09/11 01:32:35;;;;;;;6.50;4.80;;;;;;;17.09;99.45;100847.03;690944;28;4582;-56
2021/09/11 01:32:56;;;;;;;6.90;5.45;;;;;;;17.06;100.00;100843.59;691872;28;2777;-55
2021/09/11 01:33:16;;;;;;;9.02;6.13;;;;;;;17.04;100.00;100850.72;692059;28;1618;-57
2021/09/11 01:33:36;;;;;;;9.20;6.20;;;;;;;17.02;100.00;100851.63;691736;28;1249;-57
2021/09/11 01:33:57;;;;;;;8.73;5.78;;;;;;;17.00;100.00;100842.00;692471;28;1163;-57
2021/09/11 01:34:18;;;;;;;9.32;5.60;;;;;;;16.98;100.00;100844.69;692482;28;1516;-54
2021/09/11 01:34:38;;;;;;;7.17;5.30;;;;;;;16.99;100.00;100845.59;692328;28;1444;-54
2021/09/11 01:34:59;;;;;;;6.55;5.30;;;;;;;17.00;100.00;100847.28;692346;28;1712;-57
2021/09/11 01:35:19;;;;;;;9.77;5.97;;;;;;;16.98;100.00;100847.34;691786;28;1506;-57
2021/09/11 01:35:40;;;;;;;9.65;6.38;;;;;;;16.97;100.00;100847.41;691641;28;4584;-57
2021/09/11 01:36:00;;;;;;;8.60;5.90;;;;;;;16.96;100.00;100848.28;692084;28;1573;-57
2021/09/11 01:36:21;;;;;;;8.55;5.93;;;;;;;16.94;100.00;100847.50;691366;28;1233;-57
2021/09/11 01:36:41;;;;;;;8.23;6.23;;;;;;;16.93;100.00;100851.88;692395;28;1390;-56
2021/09/11 01:37:01;;;;;;;9.85;6.38;;;;;;;16.95;100.00;100850.09;691900;28;1551;-57
2021/09/11 01:37:22;;;;;;;8.63;6.47;;;;;;;16.94;100.00;100843.06;691673;28;1526;-56
2021/09/11 01:37:42;;;;;;;8.30;6.17;;;;;;;16.94;100.00;100847.50;692047;28;1565;-56
2021/09/11 01:38:03;;;;;;;9.77;6.40;;;;;;;16.92;100.00;100839.63;692207;28;1450;-56
2021/09/11 01:38:24;;;;;;;9.63;5.80;;;;;;;16.92;100.00;100842.25;692277;28;3877;-57
2021/09/11 01:38:44;;;;;;;8.07;5.22;;;;;;;16.93;100.00;100841.31;691143;28;4747;-56
2021/09/11 01:39:05;;;;;;;10.47;5.93;;;;;;;16.93;100.00;100846.59;691620;28;1603;-56